createdAt,value
2022-10-14T00:00:03.117Z,91.3
2022-10-14T00:15:02.424Z,91.4
2022-10-14T00:30:03.055Z,91.6
2022-10-14T00:45:02.286Z,91.8
2022-10-14T01:00:02.748Z,91.9
2022-10-14T01:15:03.174Z,91.8
2022-10-14T01:30:02.643Z,91.7
2022-10-14T01:45:03.148Z,92.0
2022-10-14T02:00:02.508Z,92.0
2022-10-14T02:15:03.148Z,92.4
2022-10-14T02:30:02.383Z,92.6
2022-10-14T02:45:02.845Z,93.0
2022-10-14T03:00:02.291Z,93.5
2022-10-14T03:15:02.739Z,93.8
2022-10-14T03:30:03.190Z,94.1
2022-10-14T03:45:02.596Z,94.5
2022-10-14T04:00:03.212Z,94.5
2022-10-14T04:15:02.446Z,94.4
2022-10-14T04:30:02.877Z,94.1
2022-10-14T04:45:02.357Z,94.5
2022-10-14T05:00:02.787Z,94.9
2022-10-14T05:15:03.253Z,94.7
2022-10-14T05:30:02.657Z,94.5
2022-10-14T05:45:03.216Z,94.5
2022-10-14T06:00:02.527Z,94.5
2022-10-14T06:15:03.203Z,94.6
2022-10-14T06:30:02.414Z,94.7
2022-10-14T06:45:02.852Z,94.6
2022-10-14T07:00:02.286Z,94.3
2022-10-14T07:15:02.743Z,94.7
2022-10-14T07:30:03.214Z,95.3
2022-10-14T07:45:02.576Z,95.2
2022-10-14T08:00:03.261Z,95.2
2022-10-14T08:15:02.515Z,95.1
2022-10-14T08:30:07.306Z,95.1
2022-10-14T08:45:02.372Z,94.8
2022-10-14T09:00:02.801Z,94.8
2022-10-14T09:15:03.266Z,94.6
2022-10-14T09:30:02.678Z,93.9
2022-10-14T09:45:03.338Z,94.1
2022-10-14T10:00:02.784Z,93.7
2022-10-14T10:15:03.263Z,93.8
2022-10-14T10:30:02.466Z,93.2
2022-10-14T10:45:02.923Z,91.9
2022-10-14T11:00:02.387Z,89.4
2022-10-14T11:15:02.813Z,86.6
2022-10-14T11:30:02.307Z,85.9
2022-10-14T11:45:02.659Z,83.7
2022-10-14T12:00:03.288Z,83.1
2022-10-14T12:15:02.515Z,83.1
2022-10-14T12:30:02.988Z,81.2
2022-10-14T12:45:02.407Z,81.3
2022-10-14T13:00:02.838Z,81.0
2022-10-14T13:15:02.335Z,81.6
2022-10-14T13:30:02.727Z,82.1
2022-10-14T13:45:03.323Z,82.0
2022-10-14T14:15:03.288Z,82.5
2022-10-14T14:30:02.478Z,83.1
2022-10-14T14:45:02.934Z,83.5
2022-10-14T15:00:02.329Z,83.6
2022-10-14T15:15:02.817Z,83.9
2022-10-14T15:30:02.310Z,84.5
2022-10-14T15:45:02.739Z,84.7
2022-10-14T16:00:03.341Z,86.3
2022-10-14T16:15:02.746Z,87.5
2022-10-14T16:30:02.067Z,87.8
2022-10-14T16:45:02.435Z,88.2
2022-10-14T17:00:03.044Z,89.3
2022-10-14T17:15:02.358Z,89.5
2022-10-14T17:30:02.747Z,89.7
2022-10-14T17:45:03.358Z,89.9
2022-10-14T18:00:02.637Z,90.6
2022-10-14T18:15:03.331Z,90.9
2022-10-14T18:30:02.541Z,91.6
2022-10-14T18:45:02.981Z,91.8
2022-10-14T19:00:02.454Z,92.0
2022-10-14T19:15:02.874Z,92.2
2022-10-14T19:30:02.374Z,92.3
2022-10-14T19:45:02.750Z,92.7
2022-10-14T20:00:03.377Z,92.8
2022-10-14T20:15:02.631Z,92.9
2022-10-14T20:30:03.082Z,93.5
2022-10-14T20:45:02.513Z,93.9
2022-10-14T21:00:02.944Z,93.8
2022-10-14T21:15:02.404Z,94.0
2022-10-14T21:30:02.839Z,94.4
2022-10-14T21:45:03.408Z,94.8
2022-10-14T22:00:02.738Z,94.8
2022-10-14T22:30:02.633Z,94.4
2022-10-14T22:45:03.091Z,94.2
2022-10-14T23:00:02.510Z,94.3
2022-10-14T23:15:02.957Z,94.9
2022-10-14T23:30:02.420Z,94.9
2022-10-14T23:45:02.828Z,94.7
